createdAt,value
2016-09-05T00:00:06.777Z,16.7
2016-09-05T00:00:51.875Z,16.63
2016-09-05T00:01:51.909Z,16.66
2016-09-05T00:03:06.843Z,16.6
2016-09-05T00:03:51.946Z,16.56
2016-09-05T00:04:52.033Z,16.48
2016-09-05T00:06:52.021Z,16.56
2016-09-05T00:07:52.097Z,16.49
2016-09-05T00:08:52.090Z,16.6
2016-09-05T00:09:52.103Z,16.66
2016-09-05T00:11:52.148Z,16.67
2016-09-05T00:12:52.903Z,16.68
2016-09-05T00:13:52.198Z,16.66
2016-09-05T00:14:52.255Z,16.61
2016-09-05T00:15:52.261Z,16.64
2016-09-05T00:17:07.254Z,16.61
2016-09-05T00:17:53.057Z,16.71
2016-09-05T00:19:07.260Z,16.64
2016-09-05T00:19:52.353Z,16.71
2016-09-05T00:20:52.379Z,16.75
2016-09-05T00:21:52.409Z,16.68
2016-09-05T00:22:52.446Z,16.78
2016-09-05T00:23:52.466Z,16.75
2016-09-05T00:24:52.473Z,16.81
2016-09-05T00:25:52.501Z,16.82
2016-09-05T00:26:52.523Z,16.78
2016-09-05T00:27:52.549Z,16.76
2016-09-05T00:28:52.575Z,16.86
2016-09-05T00:29:52.601Z,16.78
2016-09-05T00:30:52.646Z,16.82
2016-09-05T00:32:07.580Z,16.81
2016-09-05T00:32:52.679Z,16.85
2016-09-05T00:33:52.731Z,16.83
2016-09-05T00:34:52.741Z,16.86
2016-09-05T00:35:52.778Z,16.85
2016-09-05T00:36:52.783Z,16.85
2016-09-05T00:38:52.840Z,16.79
2016-09-05T00:39:52.862Z,16.73
2016-09-05T00:40:52.892Z,16.7
2016-09-05T00:41:52.909Z,16.68
2016-09-05T00:42:52.928Z,16.67
2016-09-05T00:43:52.967Z,16.71
2016-09-05T00:44:52.985Z,16.78
2016-09-05T00:45:53.000Z,16.68
2016-09-05T00:46:53.032Z,16.68
2016-09-05T00:48:07.990Z,16.66
2016-09-05T00:48:53.079Z,16.7
2016-09-05T00:50:53.144Z,16.67
2016-09-05T00:51:53.165Z,16.66
2016-09-05T00:52:53.189Z,16.66
2016-09-05T00:53:53.205Z,16.64
2016-09-05T00:54:53.234Z,16.67
2016-09-05T00:55:53.270Z,16.7
2016-09-05T00:56:53.288Z,16.64
2016-09-05T00:57:53.312Z,16.75
2016-09-05T00:58:53.343Z,16.68
2016-09-05T00:59:53.362Z,16.73
2016-09-05T01:00:53.409Z,16.68
2016-09-05T01:01:53.413Z,16.79
2016-09-05T01:02:53.459Z,16.68
2016-09-05T01:04:08.381Z,16.52
2016-09-05T01:05:08.413Z,16.52
2016-09-05T01:06:08.429Z,16.61
2016-09-05T01:06:53.548Z,16.61
2016-09-05T01:07:53.603Z,16.64
2016-09-05T01:08:53.597Z,16.64
2016-09-05T01:09:53.610Z,16.64
2016-09-05T01:10:53.661Z,16.64
2016-09-05T01:11:53.663Z,16.71
2016-09-05T01:12:53.681Z,16.78
2016-09-05T01:13:53.722Z,16.75
2016-09-05T01:14:53.740Z,16.7
2016-09-05T01:15:53.773Z,16.71
2016-09-05T01:16:53.789Z,16.7
2016-09-05T01:17:53.822Z,16.78
2016-09-05T01:18:53.841Z,16.71
2016-09-05T01:20:08.791Z,16.67
2016-09-05T01:20:53.901Z,16.61
2016-09-05T01:21:53.920Z,16.63
2016-09-05T01:22:53.940Z,16.61
2016-09-05T01:24:53.984Z,16.64
2016-09-05T01:25:54.012Z,16.75
2016-09-05T01:26:54.040Z,16.78
2016-09-05T01:27:54.060Z,16.67
2016-09-05T01:28:54.087Z,16.71
2016-09-05T01:29:54.133Z,16.76
2016-09-05T01:30:54.146Z,16.81
2016-09-05T01:32:54.192Z,16.76
2016-09-05T01:33:54.914Z,16.64
2016-09-05T01:35:09.161Z,16.68
2016-09-05T01:35:54.266Z,16.7
2016-09-05T01:36:54.297Z,16.76
2016-09-05T01:37:54.315Z,16.64
2016-09-05T01:38:54.361Z,16.76
2016-09-05T01:39:54.373Z,16.7
2016-09-05T01:40:54.396Z,16.7
2016-09-05T01:42:54.455Z,16.81
2016-09-05T01:43:54.470Z,16.78
2016-09-05T01:44:54.496Z,16.75
2016-09-05T01:45:54.513Z,16.82
2016-09-05T01:46:54.536Z,16.85
2016-09-05T01:47:54.568Z,16.78
2016-09-05T01:48:54.598Z,16.81
2016-09-05T01:49:54.634Z,16.82
2016-09-05T01:50:54.666Z,16.66
2016-09-05T01:51:54.698Z,16.75
2016-09-05T01:52:54.698Z,16.81
2016-09-05T01:53:54.727Z,16.78
2016-09-05T01:54:54.750Z,16.71
2016-09-05T01:55:54.783Z,16.68
2016-09-05T01:57:54.818Z,16.82
2016-09-05T01:58:54.850Z,16.78
2016-09-05T01:59:54.873Z,16.76
2016-09-05T02:00:54.923Z,16.81
2016-09-05T02:01:54.918Z,16.71
2016-09-05T02:02:54.956Z,16.73
2016-09-05T02:03:54.969Z,16.67
2016-09-05T02:04:55.003Z,16.67
2016-09-05T02:05:55.019Z,16.63
2016-09-05T02:07:09.972Z,16.66
2016-09-05T02:07:55.083Z,16.67
2016-09-05T02:08:55.112Z,16.66
2016-09-05T02:09:55.122Z,16.7
2016-09-05T02:10:55.200Z,16.68
2016-09-05T02:11:55.184Z,16.64
2016-09-05T02:12:55.218Z,16.66
2016-09-05T02:13:55.238Z,16.7
2016-09-05T02:14:55.247Z,16.68
2016-09-05T02:16:55.300Z,16.7
2016-09-05T02:17:55.328Z,16.73
2016-09-05T02:18:55.349Z,16.71
2016-09-05T02:19:55.443Z,16.66
2016-09-05T02:20:55.422Z,16.66
2016-09-05T02:21:55.432Z,16.71
2016-09-05T02:23:10.382Z,16.66
2016-09-05T02:24:10.395Z,16.68
2016-09-05T02:24:55.509Z,16.64
2016-09-05T02:26:55.554Z,16.57
2016-09-05T02:27:55.585Z,16.64
2016-09-05T02:28:55.626Z,16.56
2016-09-05T02:29:55.624Z,16.67
2016-09-05T02:30:55.664Z,16.68
2016-09-05T02:31:55.737Z,16.71
2016-09-05T02:32:55.705Z,16.73
2016-09-05T02:33:55.721Z,16.67
2016-09-05T02:34:55.757Z,16.81
2016-09-05T02:35:55.784Z,16.64
2016-09-05T02:37:55.845Z,16.7
2016-09-05T02:39:10.774Z,16.64
2016-09-05T02:40:55.910Z,16.7
2016-09-05T02:41:55.929Z,16.68
2016-09-05T02:42:55.961Z,16.68
2016-09-05T02:43:55.981Z,16.64
2016-09-05T02:44:56.017Z,16.67
2016-09-05T02:45:56.050Z,16.78
2016-09-05T02:46:56.069Z,16.67
2016-09-05T02:47:56.082Z,16.73
2016-09-05T02:48:56.105Z,16.71
2016-09-05T02:49:56.149Z,16.76
2016-09-05T02:51:56.209Z,16.78
2016-09-05T02:52:56.198Z,16.76
2016-09-05T02:53:56.231Z,16.78
2016-09-05T02:55:11.174Z,16.7
2016-09-05T02:55:56.284Z,16.67
2016-09-05T02:56:56.303Z,16.7
2016-09-05T02:57:56.327Z,16.7
2016-09-05T02:58:56.355Z,16.68
2016-09-05T02:59:56.389Z,16.64
2016-09-05T03:00:56.408Z,16.68
2016-09-05T03:01:56.438Z,16.73
2016-09-05T03:02:56.479Z,16.78
2016-09-05T03:04:56.511Z,16.79
2016-09-05T03:05:56.529Z,16.76
2016-09-05T03:06:57.259Z,16.66
2016-09-05T03:08:56.620Z,16.76
2016-09-05T03:10:11.554Z,16.64
2016-09-05T03:10:56.655Z,16.73
2016-09-05T03:12:11.607Z,16.67
2016-09-05T03:12:56.711Z,16.66
2016-09-05T03:13:56.744Z,16.6
2016-09-05T03:14:56.762Z,16.63
2016-09-05T03:15:56.789Z,16.7
2016-09-05T03:16:56.802Z,16.64
2016-09-05T03:17:56.841Z,16.7
2016-09-05T03:18:56.857Z,16.76
2016-09-05T03:19:56.887Z,16.66
2016-09-05T03:20:56.911Z,16.67
2016-09-05T03:21:56.926Z,16.66
2016-09-05T03:22:56.954Z,16.64
2016-09-05T03:23:56.985Z,16.64
2016-09-05T03:24:57.012Z,16.7
2016-09-05T03:25:57.042Z,16.76
2016-09-05T03:26:57.068Z,16.73
2016-09-05T03:27:57.095Z,16.67
2016-09-05T03:28:57.109Z,16.71
2016-09-05T03:29:57.131Z,16.78
2016-09-05T03:31:57.230Z,16.81
2016-09-05T03:32:57.233Z,16.75
2016-09-05T03:33:57.243Z,16.82
2016-09-05T03:34:57.268Z,16.71
2016-09-05T03:35:57.290Z,16.78
2016-09-05T03:36:57.306Z,16.73
2016-09-05T03:37:57.331Z,16.63
2016-09-05T03:38:57.380Z,16.68
2016-09-05T03:39:57.380Z,16.68
2016-09-05T03:40:57.424Z,16.79
2016-09-05T03:42:12.359Z,16.68
2016-09-05T03:42:57.465Z,16.67
2016-09-05T03:43:57.506Z,16.64
2016-09-05T03:44:57.513Z,16.67
2016-09-05T03:45:57.564Z,16.79
2016-09-05T03:46:57.571Z,16.7
2016-09-05T03:47:57.595Z,16.81
2016-09-05T03:48:57.616Z,16.81
2016-09-05T03:50:57.664Z,16.82
2016-09-05T03:51:57.687Z,16.85
2016-09-05T03:52:57.711Z,16.82
2016-09-05T03:53:57.743Z,16.85
2016-09-05T03:55:57.783Z,16.86
2016-09-05T03:56:57.816Z,16.86
2016-09-05T03:58:12.761Z,16.88
2016-09-05T03:58:57.871Z,16.85
2016-09-05T03:59:57.891Z,16.83
2016-09-05T04:00:57.921Z,16.85
2016-09-05T04:01:57.934Z,16.83
2016-09-05T04:02:57.975Z,16.91
2016-09-05T04:03:57.991Z,16.88
2016-09-05T04:04:58.026Z,16.85
2016-09-05T04:05:58.037Z,16.82
2016-09-05T04:06:58.090Z,16.85
2016-09-05T04:07:58.094Z,16.93
2016-09-05T04:08:58.141Z,16.86
2016-09-05T04:09:58.135Z,16.83
2016-09-05T04:10:58.182Z,16.83
2016-09-05T04:11:58.196Z,16.82
2016-09-05T04:12:58.219Z,16.83
2016-09-05T04:14:13.181Z,16.88
2016-09-05T04:15:13.187Z,16.85
2016-09-05T04:15:58.297Z,16.97
2016-09-05T04:16:58.315Z,16.93
2016-09-05T04:17:58.335Z,16.91
2016-09-05T04:18:58.372Z,16.93
2016-09-05T04:19:58.407Z,16.89
2016-09-05T04:20:58.422Z,16.93
2016-09-05T04:21:58.497Z,16.91
2016-09-05T04:22:58.518Z,16.91
2016-09-05T04:23:58.491Z,16.97
2016-09-05T04:24:58.516Z,16.97
2016-09-05T04:26:13.475Z,16.89
2016-09-05T04:26:58.593Z,16.85
2016-09-05T04:27:59.281Z,16.82
2016-09-05T04:28:58.632Z,16.73
2016-09-05T04:30:13.564Z,16.63
2016-09-05T04:30:58.665Z,16.66
2016-09-05T04:31:58.702Z,16.57
2016-09-05T04:32:58.722Z,16.56
2016-09-05T04:33:58.740Z,16.56
2016-09-05T04:34:58.778Z,16.38
2016-09-05T04:35:58.811Z,16.35
2016-09-05T04:36:58.845Z,16.46
2016-09-05T04:37:58.839Z,16.39
2016-09-05T04:38:58.880Z,16.39
2016-09-05T04:39:58.894Z,16.45
2016-09-05T04:40:58.917Z,16.33
2016-09-05T04:41:58.942Z,16.45
2016-09-05T04:42:58.991Z,16.38
2016-09-05T04:43:59.003Z,16.3
2016-09-05T04:45:13.940Z,16.3
2016-09-05T04:46:13.972Z,16.23
2016-09-05T04:46:59.070Z,16.25
2016-09-05T04:47:59.093Z,16.24
2016-09-05T04:48:59.143Z,16.25
2016-09-05T04:49:59.151Z,16.31
2016-09-05T04:50:59.186Z,16.34
2016-09-05T04:51:59.199Z,16.31
2016-09-05T04:52:59.231Z,16.31
2016-09-05T04:53:59.253Z,16.28
2016-09-05T04:54:59.271Z,16.33
2016-09-05T04:55:59.303Z,16.23
2016-09-05T04:56:59.321Z,16.33
2016-09-05T04:57:59.357Z,16.34
2016-09-05T04:58:59.380Z,16.31
2016-09-05T05:00:00.110Z,16.27
2016-09-05T05:00:59.420Z,16.21
2016-09-05T05:01:59.459Z,16.27
2016-09-05T05:02:59.473Z,16.25
2016-09-05T05:03:59.493Z,16.27
2016-09-05T05:04:59.523Z,16.3
2016-09-05T05:05:59.563Z,16.28
2016-09-05T05:06:59.575Z,16.25
2016-09-05T05:07:59.600Z,16.34
2016-09-05T05:08:59.626Z,16.31
2016-09-05T05:09:59.652Z,16.28
2016-09-05T05:10:59.674Z,16.48
2016-09-05T05:11:59.704Z,16.45
2016-09-05T05:12:59.715Z,16.33
2016-09-05T05:13:59.739Z,16.42
2016-09-05T05:15:14.695Z,16.42
2016-09-05T05:15:59.809Z,16.46
2016-09-05T05:17:14.753Z,16.48
2016-09-05T05:17:59.846Z,16.48
2016-09-05T05:18:59.877Z,16.52
2016-09-05T05:19:59.895Z,16.52
2016-09-05T05:20:59.931Z,16.53
2016-09-05T05:21:59.941Z,16.57
2016-09-05T05:24:00.020Z,16.56
2016-09-05T05:25:00.017Z,16.48
2016-09-05T05:26:00.046Z,16.5
2016-09-05T05:27:00.065Z,16.56
2016-09-05T05:28:00.121Z,16.53
2016-09-05T05:29:00.117Z,16.53
2016-09-05T05:30:00.842Z,16.52
2016-09-05T05:31:00.178Z,16.48
2016-09-05T05:32:15.123Z,16.52
2016-09-05T05:33:15.142Z,16.53
2016-09-05T05:34:00.244Z,16.53
2016-09-05T05:35:00.282Z,16.57
2016-09-05T05:36:00.300Z,16.5
2016-09-05T05:37:00.334Z,16.49
2016-09-05T05:38:00.342Z,16.48
2016-09-05T05:39:00.379Z,16.48
2016-09-05T05:41:00.440Z,16.57
2016-09-05T05:42:00.445Z,16.56
2016-09-05T05:43:00.481Z,16.52
2016-09-05T05:44:00.494Z,16.52
2016-09-05T05:45:15.447Z,16.56
2016-09-05T05:46:00.555Z,16.56
2016-09-05T05:47:00.590Z,16.43
2016-09-05T05:48:00.615Z,16.49
2016-09-05T05:49:15.546Z,16.57
2016-09-05T05:50:00.694Z,16.49
2016-09-05T05:51:00.671Z,16.45
2016-09-05T05:52:00.694Z,16.41
2016-09-05T05:53:00.719Z,16.49
2016-09-05T05:54:00.740Z,16.53
2016-09-05T05:55:00.790Z,16.52
2016-09-05T05:56:00.800Z,16.49
2016-09-05T05:57:00.842Z,16.48
2016-09-05T05:58:00.846Z,16.42
2016-09-05T05:59:00.890Z,16.49
2016-09-05T06:00:00.893Z,16.48
2016-09-05T06:01:00.933Z,16.41
2016-09-05T06:02:00.956Z,16.39
2016-09-05T06:03:00.992Z,16.48
2016-09-05T06:04:01.002Z,16.53
2016-09-05T06:05:15.958Z,16.5
2016-09-05T06:06:01.045Z,16.38
2016-09-05T06:07:01.069Z,16.48
2016-09-05T06:08:01.099Z,16.49
2016-09-05T06:09:01.124Z,16.48
2016-09-05T06:10:01.157Z,16.52
2016-09-05T06:11:01.254Z,16.6
2016-09-05T06:12:01.210Z,16.64
2016-09-05T06:13:01.239Z,16.67
2016-09-05T06:14:01.246Z,16.76
2016-09-05T06:15:01.275Z,16.78
2016-09-05T06:16:01.296Z,16.81
2016-09-05T06:17:01.341Z,16.85
2016-09-05T06:18:01.346Z,16.85
2016-09-05T06:19:01.376Z,16.88
2016-09-05T06:20:16.325Z,16.83
2016-09-05T06:21:01.441Z,16.81
2016-09-05T06:22:01.478Z,16.82
2016-09-05T06:23:02.178Z,16.85
2016-09-05T06:24:01.514Z,16.82
2016-09-05T06:25:01.532Z,16.85
2016-09-05T06:26:01.578Z,16.75
2016-09-05T06:27:01.580Z,16.79
2016-09-05T06:28:01.660Z,16.73
2016-09-05T06:29:01.626Z,16.79
2016-09-05T06:30:01.650Z,16.66
2016-09-05T06:31:01.677Z,16.76
2016-09-05T06:32:01.714Z,16.71
2016-09-05T06:33:01.723Z,16.82
2016-09-05T06:34:01.754Z,16.79
2016-09-05T06:35:01.778Z,16.81
2016-09-05T06:36:16.725Z,16.83
2016-09-05T06:37:01.846Z,16.86
2016-09-05T06:38:01.878Z,16.79
2016-09-05T06:40:01.911Z,16.83
2016-09-05T06:41:01.927Z,16.89
2016-09-05T06:42:01.950Z,16.82
2016-09-05T06:43:01.977Z,16.83
2016-09-05T06:44:02.023Z,16.86
2016-09-05T06:45:02.038Z,16.86
2016-09-05T06:46:02.056Z,16.89
2016-09-05T06:47:02.091Z,16.97
2016-09-05T06:48:02.797Z,16.94
2016-09-05T06:49:02.168Z,16.89
2016-09-05T06:50:02.161Z,16.83
2016-09-05T06:51:02.187Z,16.81
2016-09-05T06:52:17.130Z,16.94
2016-09-05T06:53:17.157Z,17
2016-09-05T06:54:02.266Z,16.98
2016-09-05T06:55:02.278Z,17.07
2016-09-05T06:56:02.344Z,16.93
2016-09-05T06:57:02.329Z,16.97
2016-09-05T06:58:02.354Z,17.01
2016-09-05T06:59:02.396Z,17.03
2016-09-05T07:00:02.407Z,16.85
2016-09-05T07:01:02.440Z,16.91
2016-09-05T07:02:02.449Z,16.94
2016-09-05T07:03:02.488Z,16.94
2016-09-05T07:04:02.505Z,17.07
2016-09-05T07:05:02.537Z,16.93
2016-09-05T07:06:02.573Z,16.96
2016-09-05T07:07:02.590Z,17.07
2016-09-05T07:08:17.543Z,16.97
2016-09-05T07:09:02.642Z,16.91
2016-09-05T07:10:02.661Z,16.93
2016-09-05T07:11:02.684Z,17
2016-09-05T07:12:02.710Z,16.97
2016-09-05T07:13:17.674Z,16.93
2016-09-05T07:14:02.772Z,16.93
2016-09-05T07:15:02.799Z,16.94
2016-09-05T07:16:02.812Z,16.93
2016-09-05T07:17:02.860Z,17.07
2016-09-05T07:18:02.868Z,17.12
2016-09-05T07:19:02.889Z,17.16
2016-09-05T07:21:17.868Z,17.18
2016-09-05T07:22:02.956Z,17.22
2016-09-05T07:23:02.986Z,17.18
2016-09-05T07:24:17.933Z,17.19
2016-09-05T07:25:03.043Z,17.26
2016-09-05T07:27:03.086Z,17.49
2016-09-05T07:28:03.127Z,17.64
2016-09-05T07:29:03.137Z,17.66
2016-09-05T07:30:03.170Z,17.63
2016-09-05T07:31:03.199Z,17.71
2016-09-05T07:32:03.222Z,17.75
2016-09-05T07:33:03.249Z,17.92
2016-09-05T07:34:03.975Z,18.1
2016-09-05T07:35:03.305Z,18.2
2016-09-05T07:36:03.315Z,18.08
2016-09-05T07:37:03.347Z,18.12
2016-09-05T07:38:03.378Z,18.18
2016-09-05T07:39:03.461Z,18.2
2016-09-05T07:40:18.346Z,18.1
2016-09-05T07:41:03.462Z,18.27
2016-09-05T07:42:03.477Z,18.42
2016-09-05T07:43:04.188Z,18.48
2016-09-05T07:44:03.528Z,18.47
2016-09-05T07:45:03.549Z,18.39
2016-09-05T07:46:03.602Z,18.41
2016-09-05T07:47:03.618Z,18.44
2016-09-05T07:48:03.631Z,18.63
2016-09-05T07:49:03.667Z,18.65
2016-09-05T07:50:03.680Z,18.76
2016-09-05T07:51:03.716Z,18.75
2016-09-05T07:52:03.739Z,19
2016-09-05T07:53:03.771Z,19.29
2016-09-05T07:54:03.792Z,19.55
2016-09-05T07:55:18.735Z,19.61
2016-09-05T07:56:03.865Z,19.74
2016-09-05T07:57:18.784Z,19.77
2016-09-05T07:58:03.899Z,19.81
2016-09-05T07:59:03.922Z,19.29
2016-09-05T08:00:03.947Z,19.48
2016-09-05T08:01:03.965Z,19.55
2016-09-05T08:02:04.001Z,19.62
2016-09-05T08:03:04.041Z,19.77
2016-09-05T08:04:04.108Z,19.63
2016-09-05T08:05:04.074Z,19.74
2016-09-05T08:06:04.113Z,19.71
2016-09-05T08:07:04.143Z,19.59
2016-09-05T08:08:04.153Z,19.65
2016-09-05T08:09:04.185Z,19.4
2016-09-05T08:10:19.133Z,19.22
2016-09-05T08:11:04.236Z,19.26
2016-09-05T08:12:04.276Z,19.33
2016-09-05T08:13:04.307Z,19.23
2016-09-05T08:14:04.322Z,19.25
2016-09-05T08:15:04.338Z,19.16
2016-09-05T08:16:04.380Z,19.28
2016-09-05T08:17:04.395Z,19.26
2016-09-05T08:18:04.429Z,19.31
2016-09-05T08:19:04.463Z,19.19
2016-09-05T08:20:04.488Z,18.95
2016-09-05T08:21:04.507Z,19.02
2016-09-05T08:22:04.528Z,19.06
2016-09-05T08:23:04.569Z,19.21
2016-09-05T08:24:04.599Z,19.29
2016-09-05T08:25:04.607Z,19.51
2016-09-05T08:26:04.634Z,19.63
2016-09-05T08:27:19.592Z,19.5
2016-09-05T08:28:19.613Z,19.58
2016-09-05T08:29:04.721Z,19.8
2016-09-05T08:30:04.756Z,19.81
2016-09-05T08:32:04.802Z,19.78
2016-09-05T08:33:04.824Z,19.71
2016-09-05T08:35:04.888Z,19.69
2016-09-05T08:36:04.923Z,19.74
2016-09-05T08:37:04.929Z,19.98
2016-09-05T08:38:05.674Z,19.83
2016-09-05T08:39:04.981Z,19.91
2016-09-05T08:40:05.023Z,19.99
2016-09-05T08:41:05.090Z,20.03
2016-09-05T08:42:19.989Z,20.26
2016-09-05T08:43:20.028Z,19.91
2016-09-05T08:44:05.119Z,19.77
2016-09-05T08:45:05.146Z,20.23
2016-09-05T08:46:05.173Z,20.61
2016-09-05T08:47:05.250Z,20.82
2016-09-05T08:48:05.231Z,20.64
2016-09-05T08:49:05.265Z,20.7
2016-09-05T08:50:05.298Z,21.12
2016-09-05T08:51:05.327Z,21.37
2016-09-05T08:52:05.365Z,21.46
2016-09-05T08:53:05.379Z,21.35
2016-09-05T08:54:05.410Z,21.64
2016-09-05T08:55:05.424Z,21.62
2016-09-05T08:56:05.452Z,21.32
2016-09-05T08:57:05.501Z,21.37
2016-09-05T08:58:05.510Z,21.42
2016-09-05T08:59:20.474Z,21.75
2016-09-05T09:00:05.564Z,21.44
2016-09-05T09:01:20.538Z,21.49
2016-09-05T09:02:05.631Z,21.72
2016-09-05T09:03:05.653Z,22.09
2016-09-05T09:04:05.684Z,21.9
2016-09-05T09:05:05.711Z,22.17
2016-09-05T09:06:05.822Z,21.71
2016-09-05T09:07:05.775Z,21.61
2016-09-05T09:08:05.793Z,21.5
2016-09-05T09:09:05.821Z,21.46
2016-09-05T09:10:05.855Z,21.38
2016-09-05T09:11:05.976Z,21.56
2016-09-05T09:12:05.915Z,21.47
2016-09-05T09:13:05.937Z,21.53
2016-09-05T09:14:05.967Z,21.58
2016-09-05T09:15:20.920Z,21.29
2016-09-05T09:16:20.946Z,21.19
2016-09-05T09:17:06.077Z,20.7
2016-09-05T09:18:06.083Z,20.66
2016-09-05T09:19:06.118Z,20.61
2016-09-05T09:20:06.145Z,20.8
2016-09-05T09:21:06.188Z,20.79
2016-09-05T09:22:06.190Z,20.69
2016-09-05T09:23:06.241Z,20.58
2016-09-05T09:24:06.266Z,20.47
2016-09-05T09:25:06.281Z,20.42
2016-09-05T09:26:06.309Z,20.11
2016-09-05T09:27:06.335Z,20.13
2016-09-05T09:28:06.375Z,20.24
2016-09-05T09:29:06.416Z,20.2
2016-09-05T09:30:21.350Z,20.1
2016-09-05T09:31:06.457Z,20.14
2016-09-05T09:32:21.398Z,19.81
2016-09-05T09:33:06.510Z,19.59
2016-09-05T09:34:06.537Z,19.55
2016-09-05T09:35:06.556Z,19.65
2016-09-05T09:36:06.599Z,19.59
2016-09-05T09:37:06.629Z,19.74
2016-09-05T09:38:06.647Z,19.59
2016-09-05T09:39:06.666Z,19.68
2016-09-05T09:40:06.733Z,19.68
2016-09-05T09:41:06.720Z,19.74
2016-09-05T09:42:06.777Z,20.03
2016-09-05T09:44:06.816Z,20.47
2016-09-05T09:45:21.755Z,20.38
2016-09-05T09:47:21.806Z,20.38
2016-09-05T09:48:06.914Z,20.39
2016-09-05T09:49:06.953Z,20.47
2016-09-05T09:50:06.963Z,20.26
2016-09-05T09:51:06.990Z,20.31
2016-09-05T09:52:07.030Z,20.24
2016-09-05T09:53:07.059Z,20.39
2016-09-05T09:54:07.091Z,20.39
2016-09-05T09:55:07.097Z,20.06
2016-09-05T09:56:07.141Z,19.77
2016-09-05T09:57:07.156Z,19.69
2016-09-05T09:58:07.176Z,19.58
2016-09-05T09:59:07.205Z,19.37
2016-09-05T10:00:07.257Z,19.14
2016-09-05T10:01:07.258Z,18.75
2016-09-05T10:02:22.223Z,18.76
2016-09-05T10:03:07.320Z,18.81
2016-09-05T10:04:07.371Z,18.62
2016-09-05T10:05:07.402Z,18.67
2016-09-05T10:06:07.395Z,18.73
2016-09-05T10:07:07.437Z,18.7
2016-09-05T10:08:07.458Z,18.76
2016-09-05T10:09:07.474Z,18.82
2016-09-05T10:10:08.224Z,18.92
2016-09-05T10:11:08.593Z,19.13
2016-09-05T10:12:07.557Z,19.22
2016-09-05T10:13:07.594Z,19.19
2016-09-05T10:14:07.616Z,19.28
2016-09-05T10:15:07.658Z,19.58
2016-09-05T10:16:22.590Z,19.99
2016-09-05T10:17:07.719Z,20.23
2016-09-05T10:18:22.651Z,20.43
2016-09-05T10:19:07.748Z,20.5
2016-09-05T10:20:22.700Z,20.61
2016-09-05T10:21:07.803Z,20.85
2016-09-05T10:22:07.829Z,20.84
2016-09-05T10:23:07.852Z,20.94
2016-09-05T10:24:08.606Z,20.95
2016-09-05T10:25:07.917Z,21.27
2016-09-05T10:26:07.933Z,21.1
2016-09-05T10:27:07.960Z,21.14
2016-09-05T10:28:07.989Z,21.21
2016-09-05T10:29:08.054Z,21.21
2016-09-05T10:30:08.051Z,21.04
2016-09-05T10:31:08.103Z,21.24
2016-09-05T10:32:08.113Z,21.21
2016-09-05T10:33:08.140Z,21.4
2016-09-05T10:34:23.083Z,21.47
2016-09-05T10:35:08.200Z,21.34
2016-09-05T10:36:08.225Z,21.21
2016-09-05T10:37:08.252Z,21.38
2016-09-05T10:38:08.275Z,21.35
2016-09-05T10:39:08.325Z,21.32
2016-09-05T10:40:08.325Z,21.34
2016-09-05T10:41:08.369Z,21.25
2016-09-05T10:42:08.397Z,21.28
2016-09-05T10:43:08.419Z,21.25
2016-09-05T10:44:08.446Z,21.04
2016-09-05T10:45:08.463Z,20.77
2016-09-05T10:46:08.505Z,21.03
2016-09-05T10:47:08.528Z,21.24
2016-09-05T10:48:23.475Z,21.47
2016-09-05T10:49:08.592Z,21.4
2016-09-05T10:50:23.530Z,21.19
2016-09-05T10:52:08.661Z,21.32
2016-09-05T10:53:08.696Z,21.4
2016-09-05T10:54:08.731Z,21.32
2016-09-05T10:55:08.761Z,21.22
2016-09-05T10:56:08.781Z,21.29
2016-09-05T10:57:08.856Z,21.49
2016-09-05T10:58:08.836Z,21.47
2016-09-05T10:59:08.856Z,21.38
2016-09-05T11:00:08.896Z,21.34
2016-09-05T11:01:08.911Z,21.43
2016-09-05T11:03:08.973Z,21.37
2016-09-05T11:04:09.009Z,21.37
2016-09-05T11:05:23.950Z,21.27
2016-09-05T11:06:09.067Z,21.28
2016-09-05T11:07:09.080Z,21.25
2016-09-05T11:08:09.107Z,21.1
2016-09-05T11:09:09.137Z,20.92
2016-09-05T11:10:24.106Z,21.12
2016-09-05T11:12:09.241Z,21.19
2016-09-05T11:13:09.262Z,21.12
2016-09-05T11:14:09.292Z,20.98
2016-09-05T11:15:09.335Z,20.92
2016-09-05T11:16:09.332Z,20.91
2016-09-05T11:17:09.368Z,20.85
2016-09-05T11:18:24.315Z,21.01
2016-09-05T11:19:09.422Z,21.07
2016-09-05T11:20:09.442Z,21.06
2016-09-05T11:21:09.535Z,21.21
2016-09-05T11:22:24.419Z,21.31
2016-09-05T11:23:09.525Z,21.42
2016-09-05T11:24:09.559Z,21.52
2016-09-05T11:25:09.580Z,21.49
2016-09-05T11:26:24.541Z,21.56
2016-09-05T11:27:24.575Z,21.58
2016-09-05T11:28:09.669Z,21.68
2016-09-05T11:29:09.691Z,21.75
2016-09-05T11:30:09.731Z,21.67
2016-09-05T11:31:09.748Z,21.62
2016-09-05T11:32:09.791Z,21.69
2016-09-05T11:33:09.808Z,21.61
2016-09-05T11:34:24.756Z,21.54
2016-09-05T11:35:09.865Z,21.59
2016-09-05T11:36:09.897Z,21.43
2016-09-05T11:37:24.853Z,21.34
2016-09-05T11:38:09.941Z,21.25
2016-09-05T11:39:09.979Z,21.21
2016-09-05T11:40:10.693Z,21.35
2016-09-05T11:41:10.052Z,21.5
2016-09-05T11:42:10.054Z,21.77
2016-09-05T11:43:10.107Z,22.1
2016-09-05T11:44:10.106Z,21.98
2016-09-05T11:45:10.150Z,21.91
2016-09-05T11:46:10.174Z,21.91
2016-09-05T11:47:10.214Z,21.94
2016-09-05T11:48:25.147Z,21.94
2016-09-05T11:49:10.268Z,22.07
2016-09-05T11:50:25.204Z,22.21
2016-09-05T11:51:25.231Z,22.42
2016-09-05T11:52:10.345Z,22.33
2016-09-05T11:53:25.291Z,22.46
2016-09-05T11:54:10.411Z,22.58
2016-09-05T11:55:10.420Z,22.76
2016-09-05T11:56:10.455Z,22.79
2016-09-05T11:57:10.483Z,22.91
2016-09-05T11:58:10.564Z,22.82
2016-09-05T11:59:10.545Z,22.7
2016-09-05T12:00:12.289Z,22.86
2016-09-05T12:01:10.586Z,22.97
2016-09-05T12:02:10.627Z,23.01
2016-09-05T12:03:10.653Z,23.09
2016-09-05T12:04:10.696Z,23.15
2016-09-05T12:05:10.701Z,23.01
2016-09-05T12:06:10.744Z,22.8
2016-09-05T12:07:10.752Z,22.72
2016-09-05T12:08:10.786Z,22.67
2016-09-05T12:09:25.737Z,22.27
2016-09-05T12:10:10.855Z,22.07
2016-09-05T12:11:10.879Z,21.86
2016-09-05T12:12:10.918Z,21.75
2016-09-05T12:13:10.927Z,21.77
2016-09-05T12:14:10.955Z,21.77
2016-09-05T12:15:11.008Z,21.82
2016-09-05T12:16:11.009Z,21.8
2016-09-05T12:17:11.033Z,21.86
2016-09-05T12:19:11.092Z,22
2016-09-05T12:20:11.123Z,22.12
2016-09-05T12:21:11.155Z,22.24
2016-09-05T12:22:11.184Z,22.25
2016-09-05T12:23:11.237Z,22.39
2016-09-05T12:24:11.237Z,22.55
2016-09-05T12:25:26.187Z,22.6
2016-09-05T12:27:11.350Z,22.6
2016-09-05T12:28:11.356Z,22.75
2016-09-05T12:29:26.316Z,22.91
2016-09-05T12:30:11.405Z,22.83
2016-09-05T12:31:11.443Z,22.8
2016-09-05T12:32:11.459Z,22.73
2016-09-05T12:33:11.507Z,22.77
2016-09-05T12:34:11.531Z,22.68
2016-09-05T12:35:11.551Z,22.6
2016-09-05T12:37:11.603Z,22.55
2016-09-05T12:38:11.638Z,22.49
2016-09-05T12:39:11.655Z,22.46
2016-09-05T12:40:26.624Z,22.35
2016-09-05T12:41:26.637Z,22.37
2016-09-05T12:42:11.750Z,22.33
2016-09-05T12:43:11.783Z,22.36
2016-09-05T12:44:11.799Z,22.6
2016-09-05T12:45:11.830Z,22.64
2016-09-05T12:46:11.862Z,22.73
2016-09-05T12:47:11.911Z,22.82
2016-09-05T12:48:11.909Z,22.79
2016-09-05T12:49:11.955Z,22.83
2016-09-05T12:51:12.003Z,22.3
2016-09-05T12:52:12.032Z,22.39
2016-09-05T12:53:12.064Z,22.27
2016-09-05T12:54:12.087Z,22.12
2016-09-05T12:55:12.118Z,21.98
2016-09-05T12:56:12.145Z,22.15
2016-09-05T12:57:12.173Z,22.06
2016-09-05T12:58:12.196Z,21.99
2016-09-05T12:59:12.274Z,22.17
2016-09-05T13:00:12.244Z,22.09
2016-09-05T13:01:12.282Z,22.27
2016-09-05T13:02:12.301Z,22.22
2016-09-05T13:03:12.330Z,22.24
2016-09-05T13:04:12.358Z,22.15
2016-09-05T13:06:12.423Z,22.21
2016-09-05T13:07:12.445Z,22.52
2016-09-05T13:08:12.474Z,22.75
2016-09-05T13:09:12.497Z,22.82
2016-09-05T13:11:12.573Z,22.6
2016-09-05T13:12:27.529Z,22.49
2016-09-05T13:13:12.633Z,22.45
2016-09-05T13:14:12.655Z,22.36
2016-09-05T13:16:12.707Z,22.2
2016-09-05T13:17:12.727Z,22.31
2016-09-05T13:18:12.775Z,22.35
2016-09-05T13:19:13.084Z,22.58
2016-09-05T13:20:12.821Z,22.47
2016-09-05T13:21:12.886Z,22.65
2016-09-05T13:22:12.866Z,22.72
2016-09-05T13:23:12.900Z,22.7
2016-09-05T13:24:12.947Z,22.76
2016-09-05T13:25:12.963Z,22.73
2016-09-05T13:26:12.984Z,22.7
2016-09-05T13:27:13.011Z,22.79
2016-09-05T13:28:27.959Z,22.79
2016-09-05T13:29:13.364Z,22.86
2016-09-05T13:30:13.107Z,22.86
2016-09-05T13:32:28.085Z,22.95
2016-09-05T13:33:13.175Z,22.7